Time;durP1;ratioP1;P1;durP2;ratioP2;P2;SDS_P1;SDS_P2;PMS_P1;PMS_P2;Temp;Humidity;BMP_temperature;BMP_pressure;BME280_temperature;BME280_humidity;BME280_pressure;Samples;Min_cycle;Max_cycle;Signal;HPM_P1;HPM_P2
2023/02/10 00:01:31;;;;;;;;;;;3.60;96.70;;;;;;5081373;28;19923;-79
2023/02/10 00:03:58;;;;;;;;;;;3.60;96.70;;;;;;5066000;28;20469;-79
2023/02/10 00:06:26;;;;;;;;;;;3.70;96.70;;;;;;5055795;28;19928;-79
2023/02/10 00:08:56;;;;;;;;;;;3.60;96.70;;;;;;5087246;28;19924;-73
2023/02/10 00:11:56;;;;;;;;;;;3.70;96.70;;;;;;5065740;28;19928;-73
2023/02/10 00:14:11;;;;;;;;;;;3.60;96.70;;;;;;5064094;28;19954;-73
2023/02/10 00:16:38;;;;;;;;;;;3.60;96.70;;;;;;5086122;28;19924;-73
2023/02/10 00:19:06;;;;;;;;;;;3.60;96.70;;;;;;5083321;28;19924;-78
2023/02/10 00:21:33;;;;;;;;;;;3.50;96.70;;;;;;5068592;28;20022;-77
2023/02/10 00:24:16;;;;;;;;;;;3.40;96.70;;;;;;5086509;28;20018;-78
2023/02/10 00:26:45;;;;;;;;;;;3.30;96.70;;;;;;5032721;28;19924;-78
2023/02/10 00:29:13;;;;;;;;;;;3.30;96.70;;;;;;5013471;28;19932;-78
2023/02/10 00:31:41;;;;;;;;;;;3.30;96.70;;;;;;5024073;28;20275;-78
2023/02/10 00:34:12;;;;;;;;;;;3.30;96.70;;;;;;5010457;28;19925;-78
2023/02/10 00:36:40;;;;;;;;;;;3.20;96.70;;;;;;5021227;28;19925;-79
2023/02/10 00:39:11;;;;;;;;;;;3.20;96.70;;;;;;5026344;28;19928;-73
2023/02/10 00:41:39;;;;;;;;;;;3.20;96.70;;;;;;5019986;28;19931;-77
2023/02/10 00:44:10;;;;;;;;;;;3.20;96.70;;;;;;5018807;28;19924;-78
2023/02/10 00:46:37;;;;;;;;;;;3.30;96.70;;;;;;5026032;28;19925;-78
2023/02/10 00:49:06;;;;;;;;;;;3.30;96.70;;;;;;5009498;28;19924;-73
2023/02/10 00:51:34;;;;;;;;;;;3.30;96.70;;;;;;5041751;28;20035;-73
2023/02/10 00:54:02;;;;;;;;;;;3.30;96.70;;;;;;5023227;28;19974;-72
2023/02/10 00:56:30;;;;;;;;;;;3.20;96.70;;;;;;5019880;28;20015;-73
2023/02/10 00:58:57;;;;;;;;;;;3.20;96.70;;;;;;5080889;28;19924;-72
2023/02/10 01:01:26;;;;;;;;;;;3.20;96.70;;;;;;5064447;28;19932;-73
2023/02/10 01:03:54;;;;;;;;;;;3.20;96.70;;;;;;5064181;28;20346;-73
2023/02/10 01:06:22;;;;;;;;;;;3.10;96.70;;;;;;5067081;28;19973;-78
2023/02/10 01:08:49;;;;;;;;;;;3.10;96.70;;;;;;5077500;28;19977;-78
2023/02/10 01:11:18;;;;;;;;;;;3.10;96.70;;;;;;5059743;28;19928;-79
2023/02/10 01:13:45;;;;;;;;;;;3.10;96.70;;;;;;5057564;28;20626;-77
2023/02/10 01:16:16;;;;;;;;;;;3.10;96.70;;;;;;5085426;28;19944;-79
2023/02/10 01:18:58;;;;;;;;;;;3.00;96.70;;;;;;5069845;28;19923;-78
2023/02/10 01:21:26;;;;;;;;;;;3.00;96.70;;;;;;5067636;28;19935;-79
2023/02/10 01:23:55;;;;;;;;;;;3.00;96.70;;;;;;5080299;28;19924;-79
2023/02/10 01:26:23;;;;;;;;;;;2.90;96.70;;;;;;5084968;28;19928;-77
2023/02/10 01:28:51;;;;;;;;;;;2.90;96.70;;;;;;5067659;28;20761;-79
2023/02/10 01:31:19;;;;;;;;;;;2.90;96.70;;;;;;5061837;28;19924;-77
2023/02/10 01:33:49;;;;;;;;;;;2.90;96.70;;;;;;5077680;28;19961;-77
2023/02/10 01:36:19;;;;;;;;;;;3.00;96.70;;;;;;5065712;28;20396;-77
2023/02/10 01:38:47;;;;;;;;;;;3.20;96.70;;;;;;5067183;28;19928;-77
2023/02/10 01:41:16;;;;;;;;;;;3.10;96.70;;;;;;5069578;28;19924;-77
2023/02/10 01:43:55;;;;;;;;;;;2.90;96.70;;;;;;5057486;28;20404;-76
2023/02/10 01:46:22;;;;;;;;;;;2.70;96.70;;;;;;5081294;28;19928;-77
2023/02/10 01:48:50;;;;;;;;;;;2.80;96.70;;;;;;5036452;28;19931;-78
2023/02/10 01:51:24;;;;;;;;;;;2.70;96.70;;;;;;5051001;28;20020;-78
2023/02/10 01:53:51;;;;;;;;;;;2.80;96.70;;;;;;5080395;28;19928;-77
2023/02/10 01:56:19;;;;;;;;;;;3.00;96.70;;;;;;5065487;28;19924;-77
2023/02/10 01:58:47;;;;;;;;;;;3.00;96.70;;;;;;5066714;28;19928;-77
2023/02/10 02:01:15;;;;;;;;;;;3.00;96.70;;;;;;5066151;28;19931;-77
2023/02/10 02:03:43;;;;;;;;;;;3.00;96.70;;;;;;5062099;28;19931;-77
2023/02/10 02:06:10;;;;;;;;;;;2.90;96.70;;;;;;5052631;28;19997;-76
2023/02/10 02:08:40;;;;;;;;;;;2.90;96.70;;;;;;5073653;28;20352;-77
2023/02/10 02:11:14;;;;;;;;;;;2.80;96.70;;;;;;5049520;28;19935;-71
2023/02/10 02:13:56;;;;;;;;;;;2.70;96.70;;;;;;5061319;28;20336;-72
2023/02/10 02:16:30;;;;;;;;;;;2.60;96.70;;;;;;5065220;28;19946;-71
2023/02/10 02:19:00;;;;;;;;;;;2.10;96.70;;;;;;5064887;28;20512;-72
2023/02/10 02:21:45;;;;;;;;;;;2.40;96.70;;;;;;5065484;28;20399;-72
2023/02/10 02:24:31;;;;;;;;;;;2.40;96.70;;;;;;5084047;28;19923;-71
2023/02/10 02:27:06;;;;;;;;;;;2.50;96.70;;;;;;5065166;28;20017;-72
2023/02/10 02:29:48;;;;;;;;;;;2.70;96.70;;;;;;5080203;28;19924;-72
2023/02/10 02:32:18;;;;;;;;;;;2.60;96.70;;;;;;5075544;28;19924;-76
2023/02/10 02:34:50;;;;;;;;;;;2.50;96.70;;;;;;5064046;28;19932;-76
2023/02/10 02:37:22;;;;;;;;;;;2.60;96.70;;;;;;5065606;28;20048;-77
2023/02/10 02:39:51;;;;;;;;;;;2.60;96.70;;;;;;5084070;28;19997;-76
2023/02/10 02:42:19;;;;;;;;;;;2.40;96.70;;;;;;5066618;28;19928;-76
2023/02/10 02:44:50;;;;;;;;;;;2.40;96.70;;;;;;5064890;28;20103;-76
2023/02/10 02:47:34;;;;;;;;;;;2.40;96.70;;;;;;5055571;28;20034;-77
2023/02/10 02:50:08;;;;;;;;;;;2.30;96.70;;;;;;5053126;28;19932;-76
2023/02/10 02:52:40;;;;;;;;;;;2.40;96.70;;;;;;5057270;28;19923;-77
2023/02/10 02:55:12;;;;;;;;;;;2.30;96.70;;;;;;5050804;28;20006;-77
2023/02/10 02:57:43;;;;;;;;;;;2.10;96.70;;;;;;5064900;28;19924;-76
2023/02/10 03:00:13;;;;;;;;;;;2.10;96.70;;;;;;5065207;28;20377;-72
2023/02/10 03:02:44;;;;;;;;;;;2.20;96.70;;;;;;5053061;28;19989;-71
2023/02/10 03:05:18;;;;;;;;;;;2.20;96.70;;;;;;5065001;28;20023;-71
2023/02/10 03:07:46;;;;;;;;;;;2.40;96.70;;;;;;5058614;28;20421;-71
2023/02/10 03:10:14;;;;;;;;;;;2.30;96.70;;;;;;5064543;28;19935;-72
2023/02/10 03:12:42;;;;;;;;;;;2.40;96.70;;;;;;5074659;28;19927;-71
2023/02/10 03:15:11;;;;;;;;;;;2.40;96.70;;;;;;5057906;28;19932;-72
2023/02/10 03:17:38;;;;;;;;;;;2.40;96.70;;;;;;5065154;28;19979;-71
2023/02/10 03:20:08;;;;;;;;;;;2.40;96.70;;;;;;5082646;28;19931;-71
2023/02/10 03:22:36;;;;;;;;;;;2.30;96.70;;;;;;5063859;28;19931;-77
2023/02/10 03:25:04;;;;;;;;;;;2.30;96.70;;;;;;5081831;28;19924;-76
2023/02/10 03:27:31;;;;;;;;;;;2.30;96.70;;;;;;5064841;28;19928;-77
2023/02/10 03:29:58;;;;;;;;;;;2.20;96.70;;;;;;5061772;28;20043;-77
2023/02/10 03:32:26;;;;;;;;;;;2.10;96.70;;;;;;5078822;28;19924;-76
2023/02/10 03:34:53;;;;;;;;;;;2.00;96.70;;;;;;5082535;28;19928;-77
2023/02/10 03:37:22;;;;;;;;;;;2.10;96.70;;;;;;5083187;28;20663;-77
2023/02/10 03:39:50;;;;;;;;;;;2.20;96.70;;;;;;5064599;28;19927;-77
2023/02/10 03:42:17;;;;;;;;;;;2.20;96.70;;;;;;5062017;28;19928;-76
2023/02/10 03:44:45;;;;;;;;;;;2.00;96.70;;;;;;5051867;28;19923;-79
2023/02/10 03:47:12;;;;;;;;;;;2.00;96.70;;;;;;5061295;28;19924;-79
2023/02/10 03:49:40;;;;;;;;;;;1.90;96.70;;;;;;5073948;28;19927;-76
2023/02/10 03:52:07;;;;;;;;;;;1.90;96.70;;;;;;5064496;28;20019;-78
2023/02/10 03:54:36;;;;;;;;;;;2.00;96.70;;;;;;5077186;28;19924;-76
2023/02/10 03:57:05;;;;;;;;;;;2.10;96.70;;;;;;5063971;28;19924;-76
2023/02/10 03:59:33;;;;;;;;;;;1.90;96.70;;;;;;5082721;28;19931;-76
2023/02/10 04:02:00;;;;;;;;;;;1.70;96.70;;;;;;5056845;28;19931;-77
2023/02/10 04:04:28;;;;;;;;;;;1.80;96.70;;;;;;5054146;28;19931;-75
2023/02/10 04:06:55;;;;;;;;;;;1.90;96.70;;;;;;5060397;28;20546;-76
2023/02/10 04:09:23;;;;;;;;;;;2.00;96.70;;;;;;5048252;28;19924;-76
2023/02/10 04:11:51;;;;;;;;;;;2.00;96.70;;;;;;5057673;28;19924;-76
2023/02/10 04:14:19;;;;;;;;;;;1.80;96.70;;;;;;5073831;28;19923;-73
2023/02/10 04:16:46;;;;;;;;;;;1.70;96.70;;;;;;5061156;28;20336;-73
2023/02/10 04:19:14;;;;;;;;;;;1.70;96.70;;;;;;5074224;28;19960;-73
2023/02/10 04:21:41;;;;;;;;;;;1.70;96.70;;;;;;5069446;28;19924;-72
2023/02/10 04:24:09;;;;;;;;;;;1.90;96.70;;;;;;5063135;28;20305;-73
2023/02/10 04:26:36;;;;;;;;;;;2.00;96.70;;;;;;5075578;28;19924;-72
2023/02/10 04:29:06;;;;;;;;;;;2.00;96.70;;;;;;5056258;28;19929;-73
2023/02/10 04:31:33;;;;;;;;;;;2.00;96.70;;;;;;5069358;28;20407;-73
2023/02/10 04:34:01;;;;;;;;;;;1.90;96.70;;;;;;5061501;28;20006;-72
2023/02/10 04:36:29;;;;;;;;;;;1.80;96.70;;;;;;5055260;28;19997;-73
2023/02/10 04:38:56;;;;;;;;;;;1.60;96.70;;;;;;5066803;28;21162;-72
2023/02/10 04:41:24;;;;;;;;;;;1.70;96.70;;;;;;5058796;28;20283;-77
2023/02/10 04:43:52;;;;;;;;;;;1.80;96.70;;;;;;5060108;28;19930;-72
2023/02/10 04:46:21;;;;;;;;;;;1.90;96.70;;;;;;5084567;28;19938;-78
2023/02/10 04:48:49;;;;;;;;;;;1.80;96.70;;;;;;5074934;28;19931;-77
2023/02/10 04:51:16;;;;;;;;;;;1.70;96.70;;;;;;5037102;28;20579;-78
2023/02/10 04:53:44;;;;;;;;;;;1.60;96.70;;;;;;5082252;28;19935;-77
2023/02/10 04:56:11;;;;;;;;;;;1.70;96.70;;;;;;5060078;28;19924;-76
2023/02/10 04:58:39;;;;;;;;;;;1.80;96.70;;;;;;5060470;28;19931;-77
2023/02/10 05:01:07;;;;;;;;;;;1.60;96.70;;;;;;5063346;28;19931;-77
2023/02/10 05:03:36;;;;;;;;;;;1.50;96.70;;;;;;5057849;28;19977;-78
2023/02/10 05:06:08;;;;;;;;;;;1.60;96.70;;;;;;5042570;28;19932;-78
2023/02/10 05:08:40;;;;;;;;;;;1.70;96.70;;;;;;5067884;28;20011;-77
2023/02/10 05:11:09;;;;;;;;;;;1.70;96.70;;;;;;5060624;28;20359;-77
2023/02/10 05:13:36;;;;;;;;;;;1.50;96.70;;;;;;5066280;28;19959;-77
2023/02/10 05:16:04;;;;;;;;;;;1.60;96.70;;;;;;5058073;28;19924;-78
2023/02/10 05:18:33;;;;;;;;;;;1.60;96.70;;;;;;5059512;28;19925;-78
2023/02/10 05:21:03;;;;;;;;;;;1.70;96.70;;;;;;5082256;28;19931;-78
2023/02/10 05:23:30;;;;;;;;;;;1.70;96.70;;;;;;5080582;28;19950;-78
2023/02/10 05:25:58;;;;;;;;;;;1.70;96.70;;;;;;5085445;28;19920;-78
2023/02/10 05:28:27;;;;;;;;;;;1.70;96.70;;;;;;5082297;28;20415;-78
2023/02/10 05:30:55;;;;;;;;;;;1.70;96.70;;;;;;5060301;28;19928;-77
2023/02/10 05:33:22;;;;;;;;;;;1.80;96.70;;;;;;5085579;28;19951;-79
2023/02/10 05:35:50;;;;;;;;;;;1.80;96.70;;;;;;5068752;28;19924;-77
2023/02/10 05:38:19;;;;;;;;;;;1.70;96.70;;;;;;5072332;28;19935;-78
2023/02/10 05:40:48;;;;;;;;;;;1.60;96.70;;;;;;5061971;28;20336;-79
2023/02/10 05:43:16;;;;;;;;;;;1.50;96.70;;;;;;5054758;28;19928;-79
2023/02/10 05:45:56;;;;;;;;;;;1.40;96.70;;;;;;5068076;28;19924;-78
2023/02/10 05:48:24;;;;;;;;;;;1.50;96.70;;;;;;5065484;28;20584;-78
2023/02/10 05:50:52;;;;;;;;;;;1.30;96.70;;;;;;5059375;28;20568;-78
2023/02/10 05:53:21;;;;;;;;;;;1.20;96.70;;;;;;5081573;28;19934;-78
2023/02/10 05:55:49;;;;;;;;;;;1.10;96.70;;;;;;5077955;28;19924;-77
2023/02/10 05:58:16;;;;;;;;;;;1.20;96.70;;;;;;5056174;28;19930;-78
2023/02/10 06:00:44;;;;;;;;;;;1.20;96.70;;;;;;5050981;28;20445;-78
2023/02/10 06:03:12;;;;;;;;;;;1.40;96.70;;;;;;5058380;28;19967;-78
2023/02/10 06:05:40;;;;;;;;;;;1.50;96.70;;;;;;5057426;28;19928;-78
2023/02/10 06:08:07;;;;;;;;;;;1.50;96.70;;;;;;5046668;28;19923;-78
2023/02/10 06:10:37;;;;;;;;;;;1.40;96.70;;;;;;5061866;28;20020;-78
2023/02/10 06:13:04;;;;;;;;;;;1.20;96.70;;;;;;5074320;28;19924;-78
2023/02/10 06:15:32;;;;;;;;;;;1.00;96.70;;;;;;5051754;28;19982;-79
2023/02/10 06:17:59;;;;;;;;;;;1.00;96.70;;;;;;5078792;28;19967;-73
2023/02/10 06:20:27;;;;;;;;;;;0.80;96.70;;;;;;5064259;28;19923;-73
2023/02/10 06:22:55;;;;;;;;;;;1.00;96.70;;;;;;5065523;28;20335;-73
2023/02/10 06:25:22;;;;;;;;;;;1.20;96.70;;;;;;5084132;28;19959;-73
2023/02/10 06:27:51;;;;;;;;;;;1.30;96.70;;;;;;5084064;28;20316;-73
2023/02/10 06:30:19;;;;;;;;;;;1.30;96.70;;;;;;5053716;28;19927;-73
2023/02/10 06:32:46;;;;;;;;;;;1.40;96.70;;;;;;5061956;28;20396;-73
2023/02/10 06:35:14;;;;;;;;;;;1.30;96.70;;;;;;5064576;28;20014;-73
2023/02/10 06:37:42;;;;;;;;;;;1.20;96.70;;;;;;5084048;28;19969;-73
2023/02/10 06:40:11;;;;;;;;;;;1.10;96.70;;;;;;5065784;28;19928;-73
2023/02/10 06:42:38;;;;;;;;;;;1.20;96.70;;;;;;5082656;28;19924;-73
2023/02/10 06:45:08;;;;;;;;;;;1.20;96.70;;;;;;5078317;28;19993;-73
2023/02/10 06:47:36;;;;;;;;;;;1.30;96.70;;;;;;5086174;28;20289;-76
2023/02/10 06:50:04;;;;;;;;;;;1.20;96.70;;;;;;5061495;28;19924;-75
2023/02/10 06:52:31;;;;;;;;;;;1.10;96.70;;;;;;5054801;28;20028;-76
2023/02/10 06:54:59;;;;;;;;;;;1.00;96.70;;;;;;5063458;28;20421;-76
2023/02/10 06:57:27;;;;;;;;;;;1.00;96.70;;;;;;5062864;28;19924;-77
2023/02/10 06:59:54;;;;;;;;;;;1.20;96.70;;;;;;5055099;28;19978;-77
2023/02/10 07:02:23;;;;;;;;;;;1.20;96.70;;;;;;5059512;28;19956;-77
2023/02/10 07:04:51;;;;;;;;;;;1.30;96.70;;;;;;5051224;28;19924;-76
2023/02/10 07:07:19;;;;;;;;;;;1.40;96.70;;;;;;5050567;28;20403;-77
2023/02/10 07:09:47;;;;;;;;;;;1.30;96.70;;;;;;5063123;28;19924;-77
2023/02/10 07:12:14;;;;;;;;;;;1.20;96.70;;;;;;5062736;28;19925;-77
2023/02/10 07:14:43;;;;;;;;;;;1.20;96.70;;;;;;5061473;28;20432;-77
2023/02/10 07:17:11;;;;;;;;;;;1.30;96.70;;;;;;5037434;28;19994;-77
2023/02/10 07:19:40;;;;;;;;;;;1.30;96.70;;;;;;5062302;28;19972;-72
2023/02/10 07:22:11;;;;;;;;;;;1.40;96.70;;;;;;5044476;28;19974;-73
2023/02/10 07:24:39;;;;;;;;;;;1.50;96.70;;;;;;5044057;28;19935;-73
2023/02/10 07:27:06;;;;;;;;;;;1.40;96.70;;;;;;5061865;28;19925;-73
2023/02/10 07:29:34;;;;;;;;;;;1.50;96.70;;;;;;5054921;28;19925;-73
2023/02/10 07:32:02;;;;;;;;;;;1.50;96.70;;;;;;5048248;28;20378;-73
2023/02/10 07:34:33;;;;;;;;;;;1.40;96.70;;;;;;5056585;28;20093;-73
2023/02/10 07:37:03;;;;;;;;;;;1.40;96.70;;;;;;5052523;28;19935;-72
2023/02/10 07:39:30;;;;;;;;;;;1.40;96.70;;;;;;5053760;28;19947;-73
2023/02/10 07:41:58;;;;;;;;;;;1.50;96.70;;;;;;5059073;28;20349;-73
2023/02/10 07:44:37;;;;;;;;;;;1.60;96.70;;;;;;5059447;28;19964;-73
2023/02/10 07:47:04;;;;;;;;;;;1.70;96.70;;;;;;5040699;28;20313;-73
2023/02/10 07:49:32;;;;;;;;;;;1.70;96.70;;;;;;5040179;28;19947;-77
2023/02/10 07:52:00;;;;;;;;;;;1.70;96.70;;;;;;5051287;28;19978;-72
2023/02/10 07:54:29;;;;;;;;;;;1.80;96.70;;;;;;5043435;28;19959;-75
2023/02/10 07:56:57;;;;;;;;;;;1.90;96.70;;;;;;5043237;28;19931;-74
2023/02/10 07:59:25;;;;;;;;;;;2.00;96.70;;;;;;5053313;28;19924;-76
2023/02/10 08:01:53;;;;;;;;;;;2.00;96.70;;;;;;5045592;28;20275;-75
2023/02/10 08:04:20;;;;;;;;;;;2.00;96.70;;;;;;5043771;28;19924;-75
2023/02/10 08:06:48;;;;;;;;;;;2.10;96.70;;;;;;5053317;28;20059;-75
2023/02/10 08:09:17;;;;;;;;;;;2.30;96.70;;;;;;5042100;28;19924;-73
2023/02/10 08:11:46;;;;;;;;;;;2.40;96.70;;;;;;5049803;28;19932;-73
2023/02/10 08:14:14;;;;;;;;;;;2.50;96.70;;;;;;5041355;28;19960;-74
2023/02/10 08:16:41;;;;;;;;;;;2.40;96.70;;;;;;5064760;28;20381;-73
2023/02/10 08:19:09;;;;;;;;;;;2.40;96.70;;;;;;5064287;28;19931;-73
2023/02/10 08:21:37;;;;;;;;;;;2.40;96.70;;;;;;5060020;28;19928;-73
2023/02/10 08:24:08;;;;;;;;;;;2.40;96.70;;;;;;5047775;28;19947;-73
2023/02/10 08:26:36;;;;;;;;;;;2.50;96.70;;;;;;5053871;28;19924;-73
2023/02/10 08:29:06;;;;;;;;;;;2.50;96.70;;;;;;5063779;28;20614;-73
2023/02/10 08:31:34;;;;;;;;;;;2.40;96.70;;;;;;5058146;28;19970;-73
2023/02/10 08:34:02;;;;;;;;;;;2.50;96.70;;;;;;5057451;28;19936;-74
2023/02/10 08:36:30;;;;;;;;;;;2.50;96.70;;;;;;5058515;28;19935;-74
2023/02/10 08:38:58;;;;;;;;;;;2.60;96.70;;;;;;5065749;28;19932;-74
2023/02/10 08:41:29;;;;;;;;;;;2.60;96.70;;;;;;5065327;28;19924;-74
2023/02/10 08:43:57;;;;;;;;;;;2.70;96.70;;;;;;5050546;28;20004;-73
2023/02/10 08:46:27;;;;;;;;;;;2.80;96.70;;;;;;5045030;28;19929;-73
2023/02/10 08:48:55;;;;;;;;;;;2.90;96.70;;;;;;5050517;28;19931;-74
2023/02/10 08:51:23;;;;;;;;;;;3.00;96.70;;;;;;5069745;28;20342;-75
2023/02/10 08:53:50;;;;;;;;;;;2.80;96.70;;;;;;5061380;28;19924;-73
2023/02/10 08:56:18;;;;;;;;;;;2.90;96.70;;;;;;5085163;28;19931;-70
2023/02/10 08:58:46;;;;;;;;;;;3.00;96.70;;;;;;5041918;28;20290;-73
2023/02/10 09:01:15;;;;;;;;;;;3.10;96.70;;;;;;5061211;28;19942;-71
2023/02/10 09:03:45;;;;;;;;;;;3.00;96.70;;;;;;5056019;28;21012;-73
2023/02/10 09:06:14;;;;;;;;;;;2.90;96.70;;;;;;5054814;28;19925;-73
2023/02/10 09:08:42;;;;;;;;;;;3.00;96.70;;;;;;5072304;28;20370;-74
2023/02/10 09:11:10;;;;;;;;;;;3.20;96.70;;;;;;5073665;28;20279;-72
2023/02/10 09:13:38;;;;;;;;;;;3.40;96.70;;;;;;5042802;28;19924;-73
2023/02/10 09:16:06;;;;;;;;;;;3.60;96.70;;;;;;5061228;28;19924;-73
2023/02/10 09:18:34;;;;;;;;;;;3.70;96.70;;;;;;5059268;28;19924;-72
2023/02/10 09:21:04;;;;;;;;;;;3.80;96.70;;;;;;5045149;28;20023;-71
2023/02/10 09:23:32;;;;;;;;;;;4.00;96.70;;;;;;5056748;28;19928;-72
2023/02/10 09:26:00;;;;;;;;;;;4.10;96.70;;;;;;5066899;28;19930;-72
2023/02/10 09:28:28;;;;;;;;;;;4.10;96.70;;;;;;5060214;28;19927;-73
2023/02/10 09:30:56;;;;;;;;;;;4.20;96.70;;;;;;5071185;28;19928;-74
2023/02/10 09:33:24;;;;;;;;;;;4.30;96.70;;;;;;5042677;28;21419;-75
2023/02/10 09:35:52;;;;;;;;;;;4.40;96.70;;;;;;5075802;28;19963;-74
2023/02/10 09:38:22;;;;;;;;;;;4.50;96.70;;;;;;5066027;28;19991;-75
2023/02/10 09:40:56;;;;;;;;;;;4.70;96.70;;;;;;5068311;28;19931;-74
2023/02/10 09:43:37;;;;;;;;;;;4.70;96.70;;;;;;5066433;28;19924;-75
2023/02/10 09:46:09;;;;;;;;;;;4.90;96.70;;;;;;5044322;28;19924;-73
2023/02/10 09:48:41;;;;;;;;;;;5.00;96.70;;;;;;5051617;28;19964;-72
2023/02/10 09:51:30;;;;;;;;;;;5.10;96.70;;;;;;5066295;28;19928;-72
2023/02/10 09:54:00;;;;;;;;;;;5.20;96.70;;;;;;5052262;28;19924;-72
2023/02/10 09:56:28;;;;;;;;;;;5.40;96.70;;;;;;5070174;28;19931;-72
2023/02/10 09:58:56;;;;;;;;;;;5.50;96.70;;;;;;5064538;28;19960;-71
2023/02/10 10:01:25;;;;;;;;;;;5.60;96.70;;;;;;5078795;28;19924;-71
2023/02/10 10:03:55;;;;;;;;;;;5.70;96.70;;;;;;5058328;28;19924;-73
2023/02/10 10:06:26;;;;;;;;;;;5.70;96.70;;;;;;5057053;28;19950;-73
2023/02/10 10:08:57;;;;;;;;;;;5.80;96.70;;;;;;5066103;28;19962;-71
2023/02/10 10:11:30;;;;;;;;;;;5.90;96.70;;;;;;5083876;28;19924;-71
2023/02/10 10:13:58;;;;;;;;;;;6.00;96.70;;;;;;5058479;28;19971;-73
2023/02/10 10:16:36;;;;;;;;;;;6.10;96.70;;;;;;5056024;28;19924;-71
2023/02/10 10:19:11;;;;;;;;;;;6.30;96.70;;;;;;5071995;28;19924;-72
2023/02/10 10:21:43;;;;;;;;;;;6.40;96.70;;;;;;5049350;28;19930;-71
2023/02/10 10:24:16;;;;;;;;;;;6.50;96.70;;;;;;5083959;28;20022;-72
2023/02/10 10:26:51;;;;;;;;;;;6.60;96.70;;;;;;5083860;28;19924;-71
2023/02/10 10:29:26;;;;;;;;;;;6.70;96.70;;;;;;5083334;28;20336;-72
2023/02/10 10:31:58;;;;;;;;;;;6.80;96.70;;;;;;5075773;28;19931;-72
2023/02/10 10:34:28;;;;;;;;;;;6.90;96.70;;;;;;5083916;28;19977;-72
2023/02/10 10:36:58;;;;;;;;;;;6.90;96.70;;;;;;5062312;28;20019;-72
2023/02/10 10:39:28;;;;;;;;;;;7.00;96.70;;;;;;5083943;28;19931;-72
2023/02/10 10:42:00;;;;;;;;;;;7.20;96.70;;;;;;5082845;28;19931;-71
2023/02/10 10:44:30;;;;;;;;;;;7.30;96.70;;;;;;5042746;28;20014;-70
2023/02/10 10:47:02;;;;;;;;;;;7.30;96.70;;;;;;5064339;28;19927;-71
2023/02/10 10:49:30;;;;;;;;;;;7.50;96.70;;;;;;5083408;28;20393;-72
2023/02/10 10:51:58;;;;;;;;;;;7.60;96.70;;;;;;5049592;28;20005;-72
2023/02/10 10:54:26;;;;;;;;;;;7.70;96.70;;;;;;5064884;28;19930;-72
2023/02/10 10:56:56;;;;;;;;;;;7.80;96.70;;;;;;5051081;28;19928;-74
2023/02/10 10:59:27;;;;;;;;;;;7.90;96.70;;;;;;5083006;28;19931;-71
2023/02/10 11:01:55;;;;;;;;;;;8.00;96.70;;;;;;5079473;28;19924;-72
2023/02/10 11:04:24;;;;;;;;;;;8.10;96.70;;;;;;5076967;28;19939;-72
2023/02/10 11:06:53;;;;;;;;;;;8.10;96.70;;;;;;5056168;28;19924;-71
2023/02/10 11:09:22;;;;;;;;;;;8.20;96.70;;;;;;5083676;28;21242;-71
2023/02/10 11:11:50;;;;;;;;;;;8.20;96.70;;;;;;5064467;28;19959;-71
2023/02/10 11:14:21;;;;;;;;;;;8.40;96.70;;;;;;5074194;28;19924;-73
2023/02/10 11:16:51;;;;;;;;;;;8.50;96.70;;;;;;5033753;28;19968;-72
2023/02/10 11:19:21;;;;;;;;;;;8.50;96.70;;;;;;5050709;28;19955;-72
2023/02/10 11:21:49;;;;;;;;;;;8.60;96.70;;;;;;5040782;28;19928;-72
2023/02/10 11:24:18;;;;;;;;;;;8.70;96.70;;;;;;5072770;28;20001;-71
2023/02/10 11:26:57;;;;;;;;;;;8.80;96.70;;;;;;5083016;28;19924;-72
2023/02/10 11:29:25;;;;;;;;;;;8.90;96.70;;;;;;5079818;28;19923;-71
2023/02/10 11:31:55;;;;;;;;;;;8.90;96.70;;;;;;5074074;28;20439;-72
2023/02/10 11:34:28;;;;;;;;;;;9.00;96.70;;;;;;5075801;28;21120;-71
2023/02/10 11:36:57;;;;;;;;;;;9.20;96.70;;;;;;5064674;28;19955;-71
2023/02/10 11:39:27;;;;;;;;;;;9.30;96.70;;;;;;5064856;28;19967;-71
2023/02/10 11:41:55;;;;;;;;;;;9.50;96.70;;;;;;5064000;28;20002;-71
2023/02/10 11:44:26;;;;;;;;;;;9.60;96.70;;;;;;5066600;28;20460;-70
2023/02/10 11:46:56;;;;;;;;;;;9.60;96.70;;;;;;5085775;28;19963;-72
2023/02/10 11:49:27;;;;;;;;;;;9.80;96.70;;;;;;5065259;28;19925;-71
2023/02/10 11:51:56;;;;;;;;;;;9.80;96.70;;;;;;5058031;28;20390;-72
2023/02/10 11:54:24;;;;;;;;;;;10.00;96.10;;;;;;5065309;28;20546;-71
2023/02/10 11:59:47;;;;;;;;;;;10.10;94.60;;;;;;5066896;28;20382;-71
2023/02/10 12:02:19;;;;;;;;;;;10.10;94.80;;;;;;5055252;28;19931;-72
2023/02/10 12:04:55;;;;;;;;;;;10.30;95.40;;;;;;5064760;28;19931;-71
2023/02/10 12:07:27;;;;;;;;;;;10.50;95.20;;;;;;5065044;28;19963;-71
2023/02/10 12:09:58;;;;;;;;;;;10.60;94.90;;;;;;5060981;28;19929;-71
2023/02/10 12:12:30;;;;;;;;;;;10.60;92.90;;;;;;5061219;28;19928;-72
2023/02/10 12:15:03;;;;;;;;;;;10.70;93.50;;;;;;5051097;28;20040;-71
2023/02/10 12:17:38;;;;;;;;;;;10.80;93.30;;;;;;5054101;28;19924;-72
2023/02/10 12:20:17;;;;;;;;;;;10.90;92.40;;;;;;5066363;28;20400;-71
2023/02/10 12:23:08;;;;;;;;;;;10.90;91.30;;;;;;5066306;28;19924;-72
2023/02/10 12:25:39;;;;;;;;;;;11.00;91.80;;;;;;5065833;28;20007;-73
2023/02/10 12:28:10;;;;;;;;;;;11.20;92.50;;;;;;5060969;28;20396;-72
2023/02/10 12:30:43;;;;;;;;;;;11.30;91.80;;;;;;5064687;28;20317;-71
2023/02/10 12:33:31;;;;;;;;;;;11.30;92.60;;;;;;5056452;28;19939;-72
2023/02/10 12:36:04;;;;;;;;;;;11.30;91.50;;;;;;5065744;28;19924;-73
2023/02/10 12:38:38;;;;;;;;;;;11.50;92.50;;;;;;5064835;28;19924;-72
2023/02/10 12:41:09;;;;;;;;;;;11.60;91.20;;;;;;5049560;28;19924;-72
2023/02/10 12:43:53;;;;;;;;;;;11.60;91.30;;;;;;5064547;28;20039;-72
2023/02/10 12:46:25;;;;;;;;;;;11.70;91.40;;;;;;5045078;28;19956;-72
2023/02/10 12:49:11;;;;;;;;;;;11.60;90.60;;;;;;5060691;28;19924;-72
2023/02/10 12:51:53;;;;;;;;;;;11.70;90.90;;;;;;5064211;28;19951;-72
2023/02/10 12:54:23;;;;;;;;;;;11.80;90.40;;;;;;5063333;28;20366;-71
2023/02/10 12:57:10;;;;;;;;;;;11.80;91.10;;;;;;5065378;28;19928;-73
2023/02/10 12:59:42;;;;;;;;;;;11.70;90.50;;;;;;5039336;28;19924;-72
2023/02/10 13:02:13;;;;;;;;;;;11.80;89.80;;;;;;5054531;28;20023;-73
2023/02/10 13:04:45;;;;;;;;;;;12.00;89.70;;;;;;5062750;28;20336;-72
2023/02/10 13:07:20;;;;;;;;;;;12.10;89.90;;;;;;5048729;28;20305;-73
2023/02/10 13:09:50;;;;;;;;;;;12.20;90.40;;;;;;5053545;28;19977;-72
2023/02/10 13:12:20;;;;;;;;;;;12.20;90.40;;;;;;5064233;28;19924;-72
2023/02/10 13:14:50;;;;;;;;;;;12.40;89.40;;;;;;5065225;28;19924;-73
2023/02/10 13:17:18;;;;;;;;;;;12.50;89.90;;;;;;5039294;28;20580;-72
2023/02/10 13:19:50;;;;;;;;;;;12.40;88.30;;;;;;5063691;28;19970;-72
2023/02/10 13:22:20;;;;;;;;;;;12.40;87.90;;;;;;5063846;28;19925;-72
2023/02/10 13:24:50;;;;;;;;;;;12.50;87.60;;;;;;5061255;28;19967;-72
2023/02/10 13:27:25;;;;;;;;;;;12.60;87.00;;;;;;5064232;28;19931;-72
2023/02/10 13:29:57;;;;;;;;;;;12.80;88.40;;;;;;5061008;28;19928;-71
2023/02/10 13:32:33;;;;;;;;;;;12.90;88.00;;;;;;5063687;28;20377;-72
2023/02/10 13:35:05;;;;;;;;;;;13.00;87.80;;;;;;5064870;28;19924;-72
2023/02/10 13:37:35;;;;;;;;;;;12.90;86.40;;;;;;5064888;28;19924;-72
2023/02/10 13:40:04;;;;;;;;;;;12.90;86.60;;;;;;5048162;28;19928;-71
2023/02/10 13:42:34;;;;;;;;;;;13.00;88.00;;;;;;5063459;28;19924;-71
2023/02/10 13:45:03;;;;;;;;;;;13.10;88.50;;;;;;5050576;28;19924;-72
2023/02/10 13:47:35;;;;;;;;;;;13.10;88.40;;;;;;5051569;28;19925;-72
2023/02/10 13:50:06;;;;;;;;;;;13.10;87.90;;;;;;5058054;28;19925;-72
2023/02/10 13:52:34;;;;;;;;;;;13.10;88.10;;;;;;5059420;28;19960;-72
2023/02/10 13:55:22;;;;;;;;;;;13.10;87.60;;;;;;5039693;28;19954;-71
2023/02/10 13:57:52;;;;;;;;;;;13.10;85.70;;;;;;5060493;28;19924;-71
2023/02/10 14:00:20;;;;;;;;;;;12.90;85.30;;;;;;5046269;28;20012;-72
2023/02/10 14:02:58;;;;;;;;;;;13.00;87.30;;;;;;5045963;28;19936;-77
2023/02/10 14:05:28;;;;;;;;;;;13.00;86.90;;;;;;5039715;28;20452;-74
2023/02/10 14:07:56;;;;;;;;;;;13.00;87.30;;;;;;5061364;28;19935;-73
2023/02/10 14:10:29;;;;;;;;;;;13.10;86.80;;;;;;5054360;28;19928;-74
2023/02/10 14:12:58;;;;;;;;;;;13.10;87.30;;;;;;5051358;28;19970;-72
2023/02/10 14:15:27;;;;;;;;;;;13.10;88.10;;;;;;5060673;28;20031;-73
2023/02/10 14:17:57;;;;;;;;;;;13.00;88.00;;;;;;5021314;28;20428;-73
2023/02/10 14:20:26;;;;;;;;;;;13.00;88.20;;;;;;5041593;28;20639;-73
2023/02/10 14:22:57;;;;;;;;;;;13.00;87.80;;;;;;5051866;28;20377;-73
2023/02/10 14:25:28;;;;;;;;;;;12.90;87.00;;;;;;5043875;28;19982;-77
2023/02/10 14:27:56;;;;;;;;;;;12.90;86.30;;;;;;5043653;28;19993;-73
2023/02/10 14:30:27;;;;;;;;;;;12.90;86.50;;;;;;5028423;28;19990;-73
2023/02/10 14:32:55;;;;;;;;;;;12.80;87.50;;;;;;5045596;28;20484;-72
2023/02/10 14:35:23;;;;;;;;;;;12.80;87.80;;;;;;5059662;28;19982;-73
2023/02/10 14:37:57;;;;;;;;;;;12.90;87.90;;;;;;5033813;28;20631;-73
2023/02/10 14:40:27;;;;;;;;;;;12.80;87.00;;;;;;5071967;28;19924;-74
2023/02/10 14:42:56;;;;;;;;;;;12.60;87.60;;;;;;5062838;28;19931;-77
2023/02/10 14:45:25;;;;;;;;;;;12.40;88.50;;;;;;5053735;28;19928;-72
2023/02/10 14:47:56;;;;;;;;;;;12.40;88.90;;;;;;5044539;28;19925;-73